Time;durP1;ratioP1;P1;durP2;ratioP2;P2;SDS_P1;SDS_P2;PMS_P1;PMS_P2;Temp;Humidity;BMP_temperature;BMP_pressure;BME280_temperature;BME280_humidity;BME280_pressure;Samples;Min_cycle;Max_cycle;Signal;HPM_P1;HPM_P2
2023/01/25 09:30:16;;;;;;;;;;;17.70;53.10;;;16.92;52.32;103301.28;178924;27;1293;-74
2023/01/25 09:30:22;;;;;;;;;;;17.70;53.10;;;16.91;52.10;103296.84;175701;28;1835;-74
2023/01/25 09:30:28;;;;;;;;;;;17.70;53.10;;;16.91;51.74;103294.16;176461;28;1090;-74
2023/01/25 09:30:35;;;;;;;;;;;17.70;53.20;;;16.90;52.51;103296.00;177044;27;928;-77
2023/01/25 09:30:41;;;;;;;;;;;17.70;53.20;;;16.91;52.73;103300.41;176885;27;1145;-75
2023/01/25 09:30:54;;;;;;;;;;;17.80;53.20;;;16.93;52.86;103292.16;177043;28;1102;-74
2023/01/25 09:31:03;;;;;;;;;;;17.70;53.30;;;16.94;51.86;103296.56;176710;28;1130;-74
2023/01/25 09:31:10;;;;;;;;;;;17.80;53.40;;;16.94;52.94;103294.69;176236;28;1026;-73
2023/01/25 09:31:17;;;;;;;;;;;17.70;53.40;;;16.96;52.22;103302.69;176699;28;1211;-74
2023/01/25 09:31:24;;;;;;;;;;;17.80;53.50;;;16.97;51.91;103296.25;176919;28;901;-73
2023/01/25 09:31:32;;;;;;;;;;;17.80;53.60;;;16.98;52.09;103300.69;176652;28;1714;-73
2023/01/25 09:31:42;;;;;;;;;;;17.80;53.60;;;17.00;52.32;103298.69;176856;27;1833;-73
2023/01/25 09:31:48;;;;;;;;;;;17.70;53.70;;;17.02;52.29;103302.09;176465;28;1504;-72
2023/01/25 09:31:54;;;;;;;;;;;17.80;53.70;;;17.03;52.79;103298.38;176815;27;925;-73
2023/01/25 09:32:00;;;;;;;;;;;17.80;53.80;;;17.04;52.57;103303.66;176580;27;1822;-73
2023/01/25 09:32:05;;;;;;;;;;;17.80;53.80;;;17.04;52.39;103297.38;176812;27;948;-73
2023/01/25 09:32:11;;;;;;;;;;;17.80;53.90;;;17.05;52.45;103299.06;176693;28;1322;-73
2023/01/25 09:32:17;;;;;;;;;;;17.80;53.90;;;17.07;52.95;103302.50;176783;28;1056;-74
2023/01/25 09:32:23;;;;;;;;;;;17.80;53.90;;;17.08;53.22;103296.94;176694;28;1081;-73
2023/01/25 09:32:29;;;;;;;;;;;17.80;53.90;;;17.09;52.25;103304.06;176718;27;1259;-74
2023/01/25 09:32:37;;;;;;;;;;;17.80;53.90;;;17.11;52.91;103298.44;176084;28;960;-73
2023/01/25 09:32:43;;;;;;;;;;;17.80;53.90;;;17.12;52.52;103295.59;176452;28;1264;-73
2023/01/25 09:32:50;;;;;;;;;;;17.80;54.00;;;17.14;52.46;103295.44;176815;27;1492;-73
2023/01/25 09:32:56;;;;;;;;;;;17.90;54.00;;;17.16;52.42;103292.56;176768;27;1165;-73
2023/01/25 09:33:03;;;;;;;;;;;17.90;54.00;;;17.16;52.17;103296.13;176771;27;1120;-73
2023/01/25 09:33:09;;;;;;;;;;;17.90;54.00;;;17.18;52.77;103296.00;176626;27;1145;-73
2023/01/25 09:33:18;;;;;;;;;;;17.90;54.00;;;17.18;52.99;103296.00;176671;28;1447;-74
2023/01/25 09:33:25;;;;;;;;;;;17.90;54.00;;;17.20;52.20;103289.41;176750;28;1007;-75
2023/01/25 09:33:35;;;;;;;;;;;18.00;54.00;;;17.23;52.27;103299.97;176606;28;1189;-74
2023/01/25 09:33:42;;;;;;;;;;;18.00;54.00;;;17.24;52.17;103296.25;176757;27;1231;-74
2023/01/25 09:33:51;;;;;;;;;;;18.00;53.90;;;17.25;52.45;103292.53;176784;27;1452;-74
2023/01/25 09:33:57;;;;;;;;;;;18.00;53.90;;;17.27;52.30;103298.66;176732;27;1181;-74
2023/01/25 09:34:03;;;;;;;;;;;18.10;53.90;;;17.27;52.34;103301.38;176788;27;1184;-73
2023/01/25 09:34:10;;;;;;;;;;;18.10;53.90;;;17.29;52.95;103302.06;176829;27;996;-73
2023/01/25 09:34:16;;;;;;;;;;;18.10;53.90;;;17.31;52.23;103296.50;176557;28;1181;-75
2023/01/25 09:34:22;;;;;;;;;;;18.10;53.80;;;17.32;52.65;103292.78;176773;28;1081;-75
2023/01/25 09:34:28;;;;;;;;;;;18.10;53.80;;;17.32;52.03;103304.44;176740;28;1185;-74
2023/01/25 09:34:35;;;;;;;;;;;18.20;53.80;;;17.33;53.06;103292.59;176821;27;968;-75
2023/01/25 09:34:41;;;;;;;;;;;18.20;53.70;;;17.35;52.30;103296.00;176683;28;1129;-74
2023/01/25 09:34:48;;;;;;;;;;;18.20;53.70;;;17.36;53.03;103300.41;176735;28;1208;-73
2023/01/25 09:34:54;;;;;;;;;;;18.20;53.60;;;17.38;52.12;103298.41;176835;27;988;-74
2023/01/25 09:35:00;;;;;;;;;;;18.20;53.60;;;17.39;52.74;103296.56;176630;27;1252;-74
2023/01/25 09:35:06;;;;;;;;;;;18.20;53.50;;;17.40;51.81;103300.97;176745;28;1049;-74
2023/01/25 09:35:12;;;;;;;;;;;18.30;53.50;;;17.42;53.00;103298.97;176632;28;1189;-73
2023/01/25 09:35:18;;;;;;;;;;;18.30;53.50;;;17.42;52.95;103294.38;176660;28;1001;-74
2023/01/25 09:35:28;;;;;;;;;;;18.30;53.50;;;17.44;52.72;103297.81;176685;28;1243;-73
2023/01/25 09:35:36;;;;;;;;;;;18.30;53.40;;;17.45;52.61;103290.53;176581;28;1515;-74
2023/01/25 09:35:47;;;;;;;;;;;18.30;53.30;;;17.48;52.34;103296.50;176724;27;1169;-73
2023/01/25 09:35:54;;;;;;;;;;;18.40;53.30;;;17.51;52.71;103305.34;176141;28;1076;-75
2023/01/25 09:36:02;;;;;;;;;;;18.40;53.20;;;17.51;52.81;103291.78;176596;28;1252;-72
2023/01/25 09:36:09;;;;;;;;;;;18.40;53.10;;;17.53;52.47;103301.47;176753;28;941;-73
2023/01/25 09:36:15;;;;;;;;;;;18.40;53.10;;;17.54;51.89;103297.72;176467;28;1257;-73
2023/01/25 09:36:21;;;;;;;;;;;18.50;53.00;;;17.55;51.91;103293.13;176750;28;949;-72
2023/01/25 09:36:27;;;;;;;;;;;18.50;53.00;;;17.55;51.84;103299.41;176610;28;1984;-73
2023/01/25 09:36:33;;;;;;;;;;;18.50;52.90;;;17.57;52.35;103300.13;176705;28;1168;-74
2023/01/25 09:36:39;;;;;;;;;;;18.60;52.90;;;17.59;51.68;103299.97;176789;27;1097;-74
2023/01/25 09:36:45;;;;;;;;;;;18.60;52.80;;;17.59;52.69;103303.53;176770;27;1275;-73
2023/01/25 09:36:52;;;;;;;;;;;18.60;52.80;;;17.61;51.61;103298.81;176821;27;1073;-74
2023/01/25 09:36:58;;;;;;;;;;;18.60;52.70;;;17.62;52.15;103297.81;176757;27;1246;-73
2023/01/25 09:37:04;;;;;;;;;;;18.60;52.70;;;17.63;52.42;103299.50;176722;27;1286;-74
2023/01/25 09:37:10;;;;;;;;;;;18.70;52.60;;;17.65;52.68;103302.09;176817;28;1035;-73
2023/01/25 09:37:16;;;;;;;;;;;18.70;52.50;;;17.66;52.55;103301.09;176550;27;1241;-73
2023/01/25 09:37:22;;;;;;;;;;;18.70;52.50;;;17.67;51.66;103302.78;176747;27;932;-74
2023/01/25 09:37:28;;;;;;;;;;;18.80;52.50;;;17.68;52.70;103299.09;176714;27;1221;-73
2023/01/25 09:37:34;;;;;;;;;;;18.80;52.40;;;17.69;51.95;103298.94;176819;27;1032;-74
2023/01/25 09:37:40;;;;;;;;;;;18.80;52.40;;;17.70;51.61;103297.06;176767;27;1252;-75
2023/01/25 09:37:50;;;;;;;;;;;18.80;52.30;;;17.73;52.34;103303.03;176657;28;1197;-74
2023/01/25 09:37:56;;;;;;;;;;;18.80;52.30;;;17.74;52.44;103303.88;176712;28;1189;-74
2023/01/25 09:38:03;;;;;;;;;;;18.80;52.10;;;17.75;52.40;103302.88;176491;28;1103;-74
2023/01/25 09:38:09;;;;;;;;;;;18.90;52.10;;;17.76;51.99;103299.13;176789;27;1000;-74
2023/01/25 09:38:15;;;;;;;;;;;18.90;52.10;;;17.79;52.31;103301.53;176797;27;985;-73
2023/01/25 09:38:22;;;;;;;;;;;18.90;52.00;;;17.78;52.05;103294.41;176798;27;917;-73
2023/01/25 09:38:28;;;;;;;;;;;19.00;52.00;;;17.81;52.20;103299.53;176453;27;1342;-73
2023/01/25 09:38:34;;;;;;;;;;;19.00;51.90;;;17.82;51.76;103301.22;176983;27;977;-74
2023/01/25 09:38:41;;;;;;;;;;;19.00;51.90;;;17.83;51.88;103304.78;177029;27;1528;-73
2023/01/25 09:38:47;;;;;;;;;;;19.00;51.80;;;17.84;52.09;103303.78;176157;27;1610;-74
2023/01/25 09:38:55;;;;;;;;;;;19.10;51.80;;;17.86;51.66;103307.19;177412;27;999;-74
2023/01/25 09:39:02;;;;;;;;;;;19.10;51.70;;;17.87;51.88;103301.63;177307;27;957;-74
2023/01/25 09:39:10;;;;;;;;;;;19.10;51.60;;;17.87;52.33;103304.31;177385;27;1008;-75
2023/01/25 09:39:17;;;;;;;;;;;19.10;51.50;;;17.88;52.06;103300.59;177379;27;965;-73
2023/01/25 09:39:23;;;;;;;;;;;19.20;51.40;;;17.91;52.27;103302.16;176172;27;955;-73
2023/01/25 09:39:28;;;;;;;;;;;19.20;51.40;;;17.91;51.47;103305.72;177259;27;953;-73
2023/01/25 09:39:34;;;;;;;;;;;19.20;51.30;;;17.93;51.82;103302.84;177098;27;1244;-74
2023/01/25 09:39:40;;;;;;;;;;;19.20;51.30;;;17.94;52.00;103304.56;177026;27;1035;-73
2023/01/25 09:39:46;;;;;;;;;;;19.30;51.20;;;17.95;51.78;103301.69;177327;27;1125;-74
2023/01/25 09:39:52;;;;;;;;;;;19.30;51.10;;;17.95;51.09;103304.41;176171;27;1075;-75
2023/01/25 09:40:02;;;;;;;;;;;19.30;51.10;;;17.97;51.07;103302.34;177459;27;996;-74
2023/01/25 09:40:19;;;;;;;;;;;19.30;51.00;;;18.00;51.04;103306.63;176473;27;998;-75
2023/01/25 09:40:37;;;;;;;;;;;19.40;50.90;;;18.02;50.98;103300.03;176786;27;1032;-73
2023/01/25 09:41:01;;;;;;;;;;;19.40;50.80;;;18.07;50.59;103299.56;176409;27;937;-75
2023/01/25 09:41:28;;;;;;;;;;;19.50;50.60;;;18.11;50.89;103296.38;177388;27;989;-75
2023/01/25 09:42:11;;;;;;;;;;;19.60;50.40;;;18.19;51.79;103297.47;176676;27;905;-75
2023/01/25 09:42:47;;;;;;;;;;;19.70;50.10;;;18.26;51.07;103295.78;176152;27;1055;-74
2023/01/25 09:43:04;;;;;;;;;;;19.90;49.70;;;18.30;51.23;103299.88;176344;27;1431;-74
2023/01/25 09:43:27;;;;;;;;;;;20.00;49.40;;;18.33;50.59;103300.44;177068;27;1003;-74
2023/01/25 09:43:58;;;;;;;;;;;20.10;49.20;;;18.38;50.29;103297.22;176270;27;914;-76
2023/01/25 09:44:30;;;;;;;;;;;20.10;49.00;;;18.43;50.76;103294.88;176646;27;929;-74
2023/01/25 09:44:59;;;;;;;;;;;20.30;48.70;;;18.49;49.88;103300.50;177016;27;933;-74
2023/01/25 09:45:25;;;;;;;;;;;20.40;48.40;;;18.54;50.78;103293.75;176674;27;901;-75
2023/01/25 09:45:35;;;;;;;;;;;20.40;48.20;;;18.58;50.50;103292.41;176949;27;1095;-73
2023/01/25 09:45:42;;;;;;;;;;;20.60;47.90;;;18.59;50.20;103289.56;177003;27;1044;-73
2023/01/25 09:45:48;;;;;;;;;;;20.60;47.90;;;18.60;50.08;103293.16;176261;27;990;-75
2023/01/25 09:45:54;;;;;;;;;;;20.70;47.80;;;18.62;49.81;103293.84;177247;27;917;-74
2023/01/25 09:46:15;;;;;;;;;;;20.70;47.80;;;18.62;50.17;103294.66;177124;27;917;-73
2023/01/25 09:46:40;;;;;;;;;;;20.70;47.70;;;18.66;49.97;103287.88;177186;27;950;-74
2023/01/25 09:46:52;;;;;;;;;;;20.80;47.50;;;18.70;50.04;103289.28;177025;27;1046;-74
2023/01/25 09:47:07;;;;;;;;;;;20.80;47.40;;;18.71;49.57;103288.25;176107;27;972;-74
2023/01/25 09:47:28;;;;;;;;;;;20.90;47.30;;;18.75;50.00;103295.06;177336;27;944;-73
2023/01/25 09:47:45;;;;;;;;;;;20.90;47.20;;;18.78;49.20;103291.19;176471;27;1018;-74
2023/01/25 09:48:03;;;;;;;;;;;21.00;47.00;;;18.79;49.70;103288.31;176878;27;953;-75
2023/01/25 09:48:21;;;;;;;;;;;21.00;46.90;;;18.84;49.32;103293.22;176498;27;949;-75
2023/01/25 09:48:41;;;;;;;;;;;21.10;46.80;;;18.86;49.02;103291.19;176892;27;976;-75
2023/01/25 09:49:02;;;;;;;;;;;21.10;46.60;;;18.89;49.12;103292.75;177314;27;992;-73
2023/01/25 09:49:35;;;;;;;;;;;21.20;46.50;;;18.93;48.95;103296.84;177295;27;1967;-73
2023/01/25 09:50:05;;;;;;;;;;;21.20;46.30;;;18.96;48.75;103300.09;177086;27;980;-73
2023/01/25 09:50:46;;;;;;;;;;;21.30;46.20;;;19.02;48.71;103290.44;176966;27;1008;-74
2023/01/25 09:51:18;;;;;;;;;;;21.40;45.90;;;19.08;48.71;103296.03;175113;28;1489;-74
2023/01/25 09:51:43;;;;;;;;;;;21.50;45.70;;;19.11;48.42;103300.28;177285;27;1189;-74
2023/01/25 09:52:16;;;;;;;;;;;21.60;45.50;;;19.15;49.01;103297.09;176750;27;960;-75
2023/01/25 09:53:06;;;;;;;;;;;21.70;45.40;;;19.21;48.80;103298.28;176811;27;1215;-73
2023/01/25 09:53:33;;;;;;;;;;;21.70;45.20;;;19.26;48.97;103290.50;177217;27;945;-74
2023/01/25 09:53:42;;;;;;;;;;;21.90;44.90;;;19.28;48.42;103291.16;176308;27;1799;-74
2023/01/25 09:53:52;;;;;;;;;;;21.90;44.70;;;19.29;47.83;103287.41;176187;27;905;-73
2023/01/25 09:53:59;;;;;;;;;;;22.00;44.70;;;19.31;48.40;103290.81;176011;27;996;-75
2023/01/25 09:54:09;;;;;;;;;;;22.00;44.60;;;19.32;48.46;103291.69;176981;27;1511;-74
2023/01/25 09:54:19;;;;;;;;;;;22.00;44.60;;;19.33;47.83;103285.22;176424;28;1247;-74
2023/01/25 09:54:28;;;;;;;;;;;22.00;44.50;;;19.33;47.95;103291.50;176760;27;956;-74
2023/01/25 09:54:39;;;;;;;;;;;22.10;44.50;;;19.36;48.05;103287.59;176323;27;995;-73
2023/01/25 09:54:48;;;;;;;;;;;22.10;44.50;;;19.37;48.20;103292.88;176742;27;1178;-73
2023/01/25 09:54:55;;;;;;;;;;;22.10;44.40;;;19.38;48.40;103285.56;176618;27;1104;-75
2023/01/25 09:55:11;;;;;;;;;;;22.10;44.40;;;19.39;48.02;103290.00;177061;27;996;-73
2023/01/25 09:55:23;;;;;;;;;;;22.10;44.30;;;19.41;48.05;103288.81;177369;27;945;-74
2023/01/25 09:55:31;;;;;;;;;;;22.20;44.30;;;19.41;47.69;103283.38;176401;27;954;-73
2023/01/25 09:55:39;;;;;;;;;;;22.20;44.20;;;19.42;48.40;103287.78;176889;27;944;-74
2023/01/25 09:55:52;;;;;;;;;;;22.20;44.10;;;19.44;48.25;103291.19;176514;27;1024;-73
2023/01/25 09:56:06;;;;;;;;;;;22.30;44.10;;;19.45;48.52;103292.06;176208;27;992;-73
2023/01/25 09:56:23;;;;;;;;;;;22.30;44.00;;;19.47;47.68;103296.31;177410;27;1008;-73
2023/01/25 09:56:37;;;;;;;;;;;22.30;44.00;;;19.49;47.75;103287.94;176491;27;1017;-73
2023/01/25 09:56:49;;;;;;;;;;;22.30;43.90;;;19.50;47.29;103292.41;176253;27;1057;-74
2023/01/25 09:56:58;;;;;;;;;;;22.30;43.80;;;19.50;47.75;103293.25;176797;27;977;-75
2023/01/25 09:57:12;;;;;;;;;;;22.30;43.80;;;19.52;47.53;103282.22;176193;27;1004;-73
2023/01/25 09:57:34;;;;;;;;;;;22.40;43.70;;;19.56;47.55;103293.63;177414;27;968;-73
2023/01/25 09:57:44;;;;;;;;;;;22.40;43.70;;;19.56;47.80;103291.75;176451;27;937;-75
2023/01/25 09:57:55;;;;;;;;;;;22.40;43.60;;;19.57;47.35;103288.00;176772;27;982;-74
2023/01/25 09:58:03;;;;;;;;;;;22.50;43.50;;;19.59;47.86;103293.28;176937;27;1434;-75
2023/01/25 09:58:17;;;;;;;;;;;22.50;43.50;;;19.59;47.42;103285.97;175960;27;1698;-74
2023/01/25 09:58:33;;;;;;;;;;;22.50;43.50;;;19.61;47.50;103286.66;177349;27;991;-74
2023/01/25 09:58:45;;;;;;;;;;;22.50;43.40;;;19.62;47.38;103285.63;176222;27;973;-74
2023/01/25 09:58:57;;;;;;;;;;;22.60;43.30;;;19.64;47.16;103290.91;177020;27;1046;-73
2023/01/25 09:59:13;;;;;;;;;;;22.60;43.30;;;19.64;47.87;103289.03;176093;27;946;-75
2023/01/25 09:59:27;;;;;;;;;;;22.60;43.30;;;19.67;47.21;103290.56;177337;27;995;-74
2023/01/25 09:59:33;;;;;;;;;;;22.60;43.20;;;19.68;47.35;103292.28;177328;27;1012;-75
2023/01/25 09:59:42;;;;;;;;;;;22.70;43.20;;;19.68;47.51;103298.56;176301;27;925;-74
2023/01/25 09:59:51;;;;;;;;;;;22.70;43.10;;;19.69;47.51;103289.41;176108;27;1016;-75
2023/01/25 10:00:05;;;;;;;;;;;22.70;43.10;;;19.70;47.38;103291.06;176856;27;985;-74
2023/01/25 10:00:22;;;;;;;;;;;22.70;43.10;;;19.71;46.85;103290.03;176838;27;1026;-74
2023/01/25 10:00:36;;;;;;;;;;;22.70;43.00;;;19.73;47.27;103295.31;176762;27;1268;-74
2023/01/25 10:00:46;;;;;;;;;;;22.70;42.90;;;19.74;47.46;103292.44;177058;27;995;-73
2023/01/25 10:01:04;;;;;;;;;;;22.80;42.90;;;19.75;47.25;103293.28;177082;27;980;-75
2023/01/25 10:01:29;;;;;;;;;;;22.80;42.90;;;19.78;47.40;103292.94;176491;27;948;-74
2023/01/25 10:01:47;;;;;;;;;;;22.80;42.80;;;19.79;47.52;103292.78;176396;27;939;-73
2023/01/25 10:02:01;;;;;;;;;;;22.80;42.80;;;19.80;46.67;103286.31;176057;27;995;-74
2023/01/25 10:02:31;;;;;;;;;;;22.90;42.70;;;19.82;47.11;103292.44;177169;27;988;-73
2023/01/25 10:02:50;;;;;;;;;;;22.90;42.70;;;19.84;46.72;103303.16;177173;27;992;-74
2023/01/25 10:03:04;;;;;;;;;;;22.90;42.60;;;19.86;46.92;103292.97;176918;27;1085;-75
2023/01/25 10:03:21;;;;;;;;;;;23.00;42.50;;;19.87;46.92;103294.66;176308;28;1029;-73
2023/01/25 10:03:37;;;;;;;;;;;23.00;42.40;;;19.89;46.56;103289.91;177207;27;1039;-72
2023/01/25 10:03:55;;;;;;;;;;;23.00;42.40;;;19.90;46.39;103286.16;176056;27;1013;-73
2023/01/25 10:04:11;;;;;;;;;;;23.00;42.40;;;19.91;46.90;103298.75;176803;27;1001;-71
2023/01/25 10:04:22;;;;;;;;;;;23.00;42.30;;;19.93;47.04;103293.09;177170;27;1610;-74
2023/01/25 10:04:36;;;;;;;;;;;23.10;42.30;;;19.94;47.08;103294.81;177043;27;1118;-76
2023/01/25 10:04:46;;;;;;;;;;;23.10;42.20;;;19.95;46.47;103297.34;176941;27;1036;-72
2023/01/25 10:05:00;;;;;;;;;;;23.20;42.20;;;19.95;46.68;103294.63;177035;27;961;-74
2023/01/25 10:05:15;;;;;;;;;;;23.10;42.20;;;19.96;46.82;103293.63;176786;27;969;-73
2023/01/25 10:05:27;;;;;;;;;;;23.20;42.10;;;19.97;46.27;103292.59;177059;27;981;-73
2023/01/25 10:05:42;;;;;;;;;;;23.20;42.10;;;19.98;46.87;103296.16;177263;27;1007;-73
2023/01/25 10:05:52;;;;;;;;;;;23.20;42.10;;;20.00;46.57;103297.69;176676;27;987;-72
2023/01/25 10:06:02;;;;;;;;;;;23.20;42.00;;;20.01;46.68;103291.22;176842;27;1054;-75
2023/01/25 10:06:12;;;;;;;;;;;23.20;42.00;;;20.01;46.86;103293.97;177359;27;960;-74
2023/01/25 10:06:23;;;;;;;;;;;23.20;42.00;;;20.02;46.81;103287.50;176733;27;964;-71
2023/01/25 10:06:37;;;;;;;;;;;23.20;41.90;;;20.03;46.41;103289.19;176026;27;937;-76
2023/01/25 10:06:49;;;;;;;;;;;23.20;41.90;;;20.04;46.29;103301.78;177336;27;1080;-73
2023/01/25 10:07:03;;;;;;;;;;;23.20;41.90;;;20.05;46.64;103289.88;176403;27;1000;-72
2023/01/25 10:07:21;;;;;;;;;;;23.30;41.80;;;20.06;46.18;103288.84;176352;27;1016;-74
2023/01/25 10:07:41;;;;;;;;;;;23.30;41.80;;;20.07;46.35;103290.56;176850;27;1612;-74
2023/01/25 10:07:57;;;;;;;;;;;23.30;41.70;;;20.09;46.57;103291.25;177077;27;975;-72
2023/01/25 10:08:16;;;;;;;;;;;23.30;41.70;;;20.10;46.57;103289.38;177330;27;956;-73
2023/01/25 10:08:32;;;;;;;;;;;23.30;41.70;;;20.11;46.07;103294.63;177078;27;1216;-74
2023/01/25 10:08:51;;;;;;;;;;;23.40;41.60;;;20.11;46.28;103291.91;176913;27;1084;-73
2023/01/25 10:09:12;;;;;;;;;;;23.30;41.60;;;20.14;46.30;103287.97;177093;27;910;-71
2023/01/25 10:09:33;;;;;;;;;;;23.40;41.60;;;20.16;46.32;103288.66;176954;27;1029;-73
2023/01/25 10:09:49;;;;;;;;;;;23.40;41.50;;;20.16;46.33;103292.22;176179;27;1000;-72
2023/01/25 10:10:04;;;;;;;;;;;23.50;41.50;;;20.17;46.51;103288.47;176359;27;1094;-73
2023/01/25 10:10:17;;;;;;;;;;;23.50;41.40;;;20.19;46.31;103291.03;176694;27;973;-74
2023/01/25 10:10:34;;;;;;;;;;;23.50;41.40;;;20.19;46.09;103291.88;177362;27;1046;-73
2023/01/25 10:10:42;;;;;;;;;;;23.50;41.40;;;20.21;45.75;103294.44;176339;27;917;-74
2023/01/25 10:10:58;;;;;;;;;;;23.50;41.40;;;20.22;45.83;103296.13;176133;27;964;-73
2023/01/25 10:11:16;;;;;;;;;;;23.50;41.30;;;20.23;46.01;103294.25;176199;27;957;-73
2023/01/25 10:11:27;;;;;;;;;;;23.50;41.30;;;20.24;45.86;103293.25;176950;27;922;-72
2023/01/25 10:11:36;;;;;;;;;;;23.60;41.30;;;20.24;45.79;103290.53;177246;27;1117;-72
2023/01/25 10:11:42;;;;;;;;;;;23.60;41.20;;;20.25;46.10;103284.06;176953;27;932;-73
2023/01/25 10:11:48;;;;;;;;;;;23.60;41.20;;;20.26;46.07;103296.66;177499;27;971;-72
2023/01/25 10:12:05;;;;;;;;;;;23.60;41.20;;;20.25;46.10;103289.50;177023;27;1204;-73
2023/01/25 10:12:18;;;;;;;;;;;23.60;41.20;;;20.26;45.98;103292.06;176859;27;1014;-72
2023/01/25 10:12:27;;;;;;;;;;;23.60;41.20;;;20.27;46.19;103293.75;176390;27;913;-72
2023/01/25 10:12:37;;;;;;;;;;;23.60;41.10;;;20.28;46.42;103286.44;176049;27;1183;-72
2023/01/25 10:12:43;;;;;;;;;;;23.60;41.10;;;20.29;45.97;103293.59;175842;27;917;-72
2023/01/25 10:12:49;;;;;;;;;;;23.60;41.10;;;20.28;45.66;103289.16;177299;27;1140;-72
2023/01/25 10:12:55;;;;;;;;;;;23.60;41.10;;;20.28;46.27;103291.88;177047;27;922;-73
2023/01/25 10:13:01;;;;;;;;;;;23.60;41.10;;;20.29;45.78;103285.41;177038;27;949;-73
2023/01/25 10:13:12;;;;;;;;;;;23.70;41.10;;;20.30;46.10;103298.00;177393;27;969;-74
2023/01/25 10:13:23;;;;;;;;;;;23.70;41.00;;;20.30;46.03;103289.84;176217;27;1068;-74
2023/01/25 10:13:30;;;;;;;;;;;23.70;41.00;;;20.31;45.86;103288.81;176160;27;972;-74
2023/01/25 10:13:36;;;;;;;;;;;23.70;41.00;;;20.31;45.89;103291.53;177075;27;988;-72
2023/01/25 10:13:43;;;;;;;;;;;23.70;41.00;;;20.32;46.15;103291.38;177302;27;1217;-74
2023/01/25 10:13:49;;;;;;;;;;;23.70;41.00;;;20.31;46.14;103288.81;176241;27;945;-72
2023/01/25 10:13:57;;;;;;;;;;;23.70;41.00;;;20.32;45.71;103288.66;177256;27;913;-74
2023/01/25 10:14:13;;;;;;;;;;;23.70;41.00;;;20.34;45.53;103288.47;177331;27;974;-72
2023/01/25 10:14:21;;;;;;;;;;;23.70;40.90;;;20.33;45.76;103287.63;176422;27;937;-74
2023/01/25 10:14:32;;;;;;;;;;;23.70;40.90;;;20.34;45.69;103286.59;176845;27;913;-72
2023/01/25 10:14:38;;;;;;;;;;;23.70;40.90;;;20.35;46.16;103282.00;177270;27;1126;-75
2023/01/25 10:14:44;;;;;;;;;;;23.70;40.90;;;20.35;45.47;103285.53;176203;27;949;-74
2023/01/25 10:14:51;;;;;;;;;;;23.80;40.90;;;20.35;46.10;103285.53;177029;27;997;-73
2023/01/25 10:14:57;;;;;;;;;;;23.70;40.80;;;20.36;46.24;103286.41;177236;27;1068;-73
2023/01/25 10:15:21;;;;;;;;;;;23.80;40.90;;;20.37;45.51;103280.81;176063;27;932;-72
2023/01/25 10:15:35;;;;;;;;;;;23.80;40.90;;;20.39;45.77;103286.09;176964;27;1016;-71
2023/01/25 10:15:47;;;;;;;;;;;23.80;40.80;;;20.39;45.58;103286.09;176730;27;985;-72
2023/01/25 10:16:02;;;;;;;;;;;23.80;40.80;;;20.39;45.74;103286.09;177453;27;948;-74
2023/01/25 10:16:20;;;;;;;;;;;23.80;40.80;;;20.40;45.33;103279.59;176081;27;979;-76
2023/01/25 10:16:32;;;;;;;;;;;23.80;40.70;;;20.41;46.03;103279.44;176837;27;925;-73
2023/01/25 10:16:54;;;;;;;;;;;23.80;40.70;;;20.42;45.85;103283.88;176163;27;1114;-75
2023/01/25 10:17:08;;;;;;;;;;;23.80;40.70;;;20.43;45.95;103271.09;175931;28;1079;-72
2023/01/25 10:17:30;;;;;;;;;;;23.80;40.70;;;20.44;45.46;103275.50;176087;27;2452;-73
2023/01/25 10:17:39;;;;;;;;;;;23.80;40.60;;;20.45;45.42;103275.34;176624;27;2718;-74
2023/01/25 10:17:57;;;;;;;;;;;23.90;40.60;;;20.47;45.69;103280.63;176616;27;1258;-74
2023/01/25 10:18:18;;;;;;;;;;;23.90;40.60;;;20.47;45.92;103267.00;177283;27;977;-77
2023/01/25 10:18:32;;;;;;;;;;;23.90;40.60;;;20.47;45.30;103267.00;176013;27;944;-76
2023/01/25 10:18:53;;;;;;;;;;;23.90;40.50;;;20.48;45.08;103266.81;177380;27;1072;-77
2023/01/25 10:19:15;;;;;;;;;;;23.90;40.40;;;20.49;44.96;103271.25;176094;27;1103;-76
2023/01/25 10:19:32;;;;;;;;;;;23.90;40.20;;;20.49;45.06;103268.53;176746;27;1161;-76
2023/01/25 10:19:52;;;;;;;;;;;23.90;40.00;;;20.50;44.33;103270.22;177213;27;981;-76
2023/01/25 10:20:19;;;;;;;;;;;23.90;40.00;;;20.50;44.78;103266.66;177335;27;1145;-78
2023/01/25 10:20:36;;;;;;;;;;;23.90;39.90;;;20.50;44.56;103263.94;176381;27;743;-76
2023/01/25 10:20:52;;;;;;;;;;;23.90;39.80;;;20.50;44.78;103272.09;177111;27;976;-76
2023/01/25 10:21:06;;;;;;;;;;;24.00;39.70;;;20.50;44.67;103263.94;177115;27;969;-73
2023/01/25 10:21:20;;;;;;;;;;;24.00;39.70;;;20.50;45.15;103267.50;176920;27;1012;-74
2023/01/25 10:21:34;;;;;;;;;;;24.00;39.70;;;20.50;44.79;103269.38;176701;27;1115;-72
2023/01/25 10:21:44;;;;;;;;;;;24.00;39.70;;;20.50;44.62;103267.50;176372;27;980;-73
2023/01/25 10:21:59;;;;;;;;;;;24.00;39.80;;;20.51;44.89;103269.19;176287;27;940;-73
2023/01/25 10:22:16;;;;;;;;;;;24.00;39.80;;;20.51;44.90;103269.19;176496;27;1035;-75
2023/01/25 10:22:27;;;;;;;;;;;24.00;39.90;;;20.51;44.91;103266.47;176849;27;925;-74
2023/01/25 10:22:44;;;;;;;;;;;24.00;39.90;;;20.51;45.05;103266.47;177450;27;895;-75
2023/01/25 10:23:00;;;;;;;;;;;24.00;39.90;;;20.52;44.81;103267.31;176232;27;1669;-73
2023/01/25 10:23:40;;;;;;;;;;;24.10;39.90;;;20.53;45.13;103269.88;176599;27;963;-76
2023/01/25 10:24:22;;;;;;;;;;;24.10;40.00;;;20.56;45.02;103270.56;176764;27;1288;-74
2023/01/25 10:25:28;;;;;;;;;;;24.10;40.00;;;20.57;45.22;103277.72;176043;28;957;-73
2023/01/25 10:25:44;;;;;;;;;;;24.10;40.00;;;20.60;45.16;103266.44;175928;28;984;-73
2023/01/25 10:25:57;;;;;;;;;;;24.10;40.00;;;20.60;44.70;103272.72;175923;28;956;-74
2023/01/25 10:26:12;;;;;;;;;;;24.10;40.00;;;20.60;44.90;103271.88;176030;28;1003;-75
2023/01/25 10:26:25;;;;;;;;;;;24.20;40.00;;;20.62;45.02;103280.72;176033;28;995;-73
2023/01/25 10:26:35;;;;;;;;;;;24.20;40.00;;;20.62;44.98;103262.50;176090;28;952;-73
2023/01/25 10:26:50;;;;;;;;;;;24.20;40.00;;;20.62;45.12;103270.69;176777;28;1174;-73
2023/01/25 10:27:01;;;;;;;;;;;24.20;40.00;;;20.63;44.89;103269.66;176781;27;1110;-75
2023/01/25 10:27:25;;;;;;;;;;;24.20;40.00;;;20.63;45.06;103274.25;176768;28;905;-73
2023/01/25 10:27:44;;;;;;;;;;;24.20;40.00;;;20.64;44.85;103278.69;176059;28;1003;-75
2023/01/25 10:28:08;;;;;;;;;;;24.20;40.00;;;20.65;45.01;103272.22;176073;28;1420;-74
2023/01/25 10:28:31;;;;;;;;;;;24.20;39.90;;;20.67;44.90;103276.47;176025;28;1938;-75
2023/01/25 10:28:45;;;;;;;;;;;24.20;39.90;;;20.68;45.04;103274.59;176103;28;932;-74
2023/01/25 10:29:01;;;;;;;;;;;24.30;39.90;;;20.68;44.98;103269.97;176073;28;936;-73
2023/01/25 10:29:14;;;;;;;;;;;24.20;39.90;;;20.69;45.07;103265.38;176034;28;1073;-75
2023/01/25 10:29:25;;;;;;;;;;;24.20;39.90;;;20.70;45.32;103272.53;176113;28;916;-75
2023/01/25 10:29:36;;;;;;;;;;;24.30;39.90;;;20.69;44.93;103270.84;175929;28;913;-76
2023/01/25 10:29:42;;;;;;;;;;;24.30;39.90;;;20.71;45.05;103269.63;176091;28;1793;-75
2023/01/25 10:29:55;;;;;;;;;;;24.30;39.90;;;20.70;44.98;103267.94;176099;28;972;-73
2023/01/25 10:30:26;;;;;;;;;;;24.30;39.90;;;20.72;44.84;103268.59;176339;28;1380;-74
2023/01/25 10:30:41;;;;;;;;;;;24.30;39.90;;;20.72;45.05;103265.03;176785;27;1008;-75
2023/01/25 10:30:59;;;;;;;;;;;24.30;39.80;;;20.72;44.73;103263.16;176664;27;1185;-74
2023/01/25 10:31:15;;;;;;;;;;;24.30;39.80;;;20.73;44.80;103259.41;176669;28;1042;-73
2023/01/25 10:31:37;;;;;;;;;;;24.30;39.80;;;20.74;44.76;103262.97;176756;28;1000;-73
2023/01/25 10:31:49;;;;;;;;;;;24.30;39.80;;;20.75;44.84;103268.25;176036;28;973;-75
2023/01/25 10:32:11;;;;;;;;;;;24.30;39.80;;;20.75;44.88;103270.13;175979;28;954;-74